Nearby METAR Reports

 

KAUS - Austin, Texas, USA
Distance from station: WNW 16mi, 26km
Updated: Sun, 08-Dec-2019 10:53pm CST
Partly cloudy
Partly cloudy
 Wind from SSW
Wind: SSW 8 mph , 13 km/h
Temperature: 64°F , 18°C
Dew Point: 57°F , 14°C
Humidity: 78%
Barometer: 29.89 inHg , 1012.2 hPa
Clouds: Partly cloudy
Visibility: 10 miles , 16 km
Cloud details: Partly cloudy 25000 ft
2019/12/09 04:53 KAUS 090453Z 20007KT 10SM SCT250 18/14 A2989 RMK AO2 SLP117 T01780144 $
KEDC - Austin Exec, Texas, USA
Distance from station: NNW 21mi, 34km
Updated: Sun, 08-Dec-2019 7:35am CST
NOT Current
Fog, Overcast
Fog, Overcast
 Wind from calm
Wind: Calm
Temperature: 45°F , 7°C
Dew Point: 45°F , 7°C
Humidity: 100%
Barometer: 30.08 inHg , 1018.6 hPa
Summary: Fog
Clouds: Overcast
Visibility: less than 1/4 mile , 0.4 km
Cloud details: Overcast 0 ft
2019/12/08 13:35 KEDC 081335Z AUTO 00000KT M1/4SM FG VV000 07/07 A3008 RMK AO2
 
KATT - Austin/Mabry, Texas, USA
Distance from station: NW 25mi, 39km
Updated: Sun, 08-Dec-2019 10:51pm CST
Clear
Clear
 Wind from SSW
Wind: SSW 3 mph , 6 km/h
Temperature: 64°F , 18°C
Dew Point: 55°F , 13°C
Humidity: 73%
Barometer: 29.90 inHg , 1012.5 hPa
Clouds: Clear
Visibility: 10 miles , 16 km
2019/12/09 04:51 KATT 090451Z AUTO 20003KT 10SM CLR 18/13 A2990 RMK AO2 SLP118 T01780128 $
KGYB - Giddings-Lee, Texas, USA
Distance from station: E 27mi, 43km
Updated: Sun, 08-Dec-2019 11:15pm CST
Clear
Clear
 Wind from calm
Wind: Calm
Temperature: 64°F , 18°C
Dew Point: 61°F , 16°C
Humidity: 88%
Barometer: 29.91 inHg , 1012.9 hPa
Clouds: Clear
Visibility: 10 miles , 16 km
2019/12/09 05:15 KGYB 090515Z AUTO 00000KT 10SM CLR 18/16 A2991 RMK AO2 T01830158
 
KHYI - San Marcos, Texas, USA
Distance from station: WSW 31mi, 49km
Updated: Sun, 08-Dec-2019 10:56pm CST
Clear
Clear
 Wind from calm
Wind: Calm
Temperature: 57°F , 14°C
Dew Point: 54°F , 12°C
Humidity: 88%
Barometer: 29.91 inHg , 1012.9 hPa
Clouds: Clear
Visibility: 10 miles , 16 km
2019/12/09 04:56 KHYI 090456Z AUTO 00000KT 10SM CLR 14/12 A2991 RMK AO2 SLP122 T01390122 PNO $
K3T5 - La Grange, Texas, USA
Distance from station: ESE 32mi, 52km
Updated: Sun, 08-Dec-2019 11:15pm CST
Clear
Clear
 Wind from S
Wind: S 7 mph , 11 km/h, Gust: 16 mph , 26 km/h
Temperature: 66°F , 19°C
Dew Point: 66°F , 19°C
Humidity: 100%
Barometer: 29.88 inHg , 1011.9 hPa
Clouds: Clear
Visibility: 10 miles , 16 km
2019/12/09 05:15 K3T5 090515Z AUTO 19006G14KT 10SM CLR 19/19 A2988 RMK AO2 T01920188
 
KT20 - Gonzales Muni, Texas, USA
Distance from station: S 41mi, 67km
Updated: Sun, 08-Dec-2019 11:15pm CST
Clear
Clear
 Wind from S
Wind: S 9 mph , 15 km/h
Temperature: 64°F , 18°C
Dew Point: 63°F , 17°C
Humidity: 94%
Barometer: 29.88 inHg , 1011.9 hPa
Clouds: Clear
Visibility: 10 miles , 16 km
2019/12/09 05:15 KT20 090515Z AUTO 17008KT 10SM CLR 18/17 A2988 RMK AO2 T01800173
KRYW - Lago Vista, Texas, USA
Distance from station: NW 42mi, 67km
Updated: Sun, 08-Dec-2019 11:15pm CST
Clear
Clear
 Wind from SSW
Wind: SSW 8 mph , 13 km/h, Gust: 17 mph , 28 km/h
Temperature: 64°F , 18°C
Dew Point: 57°F , 14°C
Humidity: 78%
Barometer: 29.88 inHg , 1011.9 hPa
Clouds: Clear
Visibility: 10 miles , 16 km
2019/12/09 05:15 KRYW 090515Z AUTO 20007G15KT 10SM CLR 18/14 A2988 RMK AO2 T01800135
 
KGTU - Georgetown, Texas, USA
Distance from station: NNW 42mi, 68km
Updated: Sun, 08-Dec-2019 10:56pm CST
Clear
Clear
 Wind from S
Wind: S 12 mph , 19 km/h
Temperature: 64°F , 18°C
Dew Point: 55°F , 13°C
Humidity: 73%
Barometer: 29.88 inHg , 1011.9 hPa
Clouds: Clear
Visibility: 10 miles , 16 km
2019/12/09 04:56 KGTU 090456Z AUTO 18010KT 10SM CLR 18/13 A2988 RMK AO2 SLP115 T01780128
KBAZ - New Braunfels, Texas, USA
Distance from station: SW 46mi, 74km
Updated: Sun, 08-Dec-2019 10:51pm CST
Clear
Clear
 Wind from SSW
Wind: SSW 8 mph , 13 km/h
Temperature: 63°F , 17°C
Dew Point: 57°F , 14°C
Humidity: 83%
Barometer: 29.89 inHg , 1012.2 hPa
Clouds: Clear
Visibility: 10 miles , 16 km
2019/12/09 04:51 KBAZ 090451Z AUTO 21007KT 10SM CLR 17/14 A2989 RMK AO2 SLP116 T01670144